sensor_id;sensor_type;location;lat;lon;timestamp;pressure;altitude;pressure_sealevel;temperature;humidity
58967;BME280;44744;51.894;5.080;2023-07-29T00:00:56;100803.95;;;18.58;82.77
58967;BME280;44744;51.894;5.080;2023-07-29T00:01:59;100809.31;;;18.58;82.61
58967;BME280;44744;51.894;5.080;2023-07-29T00:03:02;100806.60;;;18.58;82.84
58967;BME280;44744;51.894;5.080;2023-07-29T00:04:02;100807.14;;;18.58;82.80
58967;BME280;44744;51.894;5.080;2023-07-29T00:05:03;100805.90;;;18.58;82.68
58967;BME280;44744;51.894;5.080;2023-07-29T00:06:04;100809.55;;;18.58;82.77
58967;BME280;44744;51.894;5.080;2023-07-29T00:07:08;100808.13;;;18.57;82.62
58967;BME280;44744;51.894;5.080;2023-07-29T00:08:08;100809.93;;;18.57;82.74
58967;BME280;44744;51.894;5.080;2023-07-29T00:09:09;100813.17;;;18.57;82.86
58967;BME280;44744;51.894;5.080;2023-07-29T00:10:09;100809.64;;;18.56;82.86
58967;BME280;44744;51.894;5.080;2023-07-29T00:11:10;100813.91;;;18.57;82.90
58967;BME280;44744;51.894;5.080;2023-07-29T00:12:11;100815.77;;;18.56;82.74
58967;BME280;44744;51.894;5.080;2023-07-29T00:13:11;100813.89;;;18.55;82.94
58967;BME280;44744;51.894;5.080;2023-07-29T00:14:16;100821.59;;;18.55;82.87
58967;BME280;44744;51.894;5.080;2023-07-29T00:15:17;100818.15;;;18.53;82.84
58967;BME280;44744;51.894;5.080;2023-07-29T00:16:17;100817.27;;;18.51;83.09
58967;BME280;44744;51.894;5.080;2023-07-29T00:17:17;100815.56;;;18.50;82.93
58967;BME280;44744;51.894;5.080;2023-07-29T00:18:17;100815.73;;;18.49;82.82
58967;BME280;44744;51.894;5.080;2023-07-29T00:19:19;100819.36;;;18.48;83.11
58967;BME280;44744;51.894;5.080;2023-07-29T00:20:19;100823.89;;;18.47;83.09
58967;BME280;44744;51.894;5.080;2023-07-29T00:21:21;100829.11;;;18.47;83.09
58967;BME280;44744;51.894;5.080;2023-07-29T00:22:21;100831.66;;;18.46;83.24
58967;BME280;44744;51.894;5.080;2023-07-29T00:23:22;100829.25;;;18.45;83.09
58967;BME280;44744;51.894;5.080;2023-07-29T00:24:23;100833.38;;;18.45;83.39
58967;BME280;44744;51.894;5.080;2023-07-29T00:25:23;100827.86;;;18.45;83.24
58967;BME280;44744;51.894;5.080;2023-07-29T00:26:25;100832.43;;;18.44;83.19
58967;BME280;44744;51.894;5.080;2023-07-29T00:27:27;100830.01;;;18.42;83.30
58967;BME280;44744;51.894;5.080;2023-07-29T00:28:27;100829.36;;;18.42;83.42
58967;BME280;44744;51.894;5.080;2023-07-29T00:29:27;100827.16;;;18.40;83.37
58967;BME280;44744;51.894;5.080;2023-07-29T00:30:28;100826.70;;;18.40;83.35
58967;BME280;44744;51.894;5.080;2023-07-29T00:31:29;100825.99;;;18.40;83.54
58967;BME280;44744;51.894;5.080;2023-07-29T00:32:31;100821.73;;;18.39;83.52
58967;BME280;44744;51.894;5.080;2023-07-29T00:33:42;100819.48;;;18.38;83.51
58967;BME280;44744;51.894;5.080;2023-07-29T00:34:42;100813.69;;;18.37;83.43
58967;BME280;44744;51.894;5.080;2023-07-29T00:35:43;100801.36;;;18.37;83.53
58967;BME280;44744;51.894;5.080;2023-07-29T00:36:43;100794.73;;;18.37;83.64
58967;BME280;44744;51.894;5.080;2023-07-29T00:37:43;100794.61;;;18.36;83.77
58967;BME280;44744;51.894;5.080;2023-07-29T00:38:44;100794.83;;;18.36;83.89
58967;BME280;44744;51.894;5.080;2023-07-29T00:39:44;100796.24;;;18.36;83.69
58967;BME280;44744;51.894;5.080;2023-07-29T00:40:44;100798.99;;;18.35;83.73
58967;BME280;44744;51.894;5.080;2023-07-29T00:41:45;100802.20;;;18.35;83.66
58967;BME280;44744;51.894;5.080;2023-07-29T00:42:45;100804.35;;;18.35;83.81
58967;BME280;44744;51.894;5.080;2023-07-29T00:43:45;100801.17;;;18.35;83.66
58967;BME280;44744;51.894;5.080;2023-07-29T00:44:45;100804.96;;;18.34;83.65
58967;BME280;44744;51.894;5.080;2023-07-29T00:45:49;100803.09;;;18.33;83.69
58967;BME280;44744;51.894;5.080;2023-07-29T00:46:50;100808.34;;;18.33;83.70
58967;BME280;44744;51.894;5.080;2023-07-29T00:47:52;100810.27;;;18.31;83.81
58967;BME280;44744;51.894;5.080;2023-07-29T00:48:52;100807.52;;;18.30;83.74
58967;BME280;44744;51.894;5.080;2023-07-29T00:49:52;100809.39;;;18.29;83.80
58967;BME280;44744;51.894;5.080;2023-07-29T00:50:52;100808.56;;;18.28;83.83
58967;BME280;44744;51.894;5.080;2023-07-29T00:51:53;100810.95;;;18.27;83.82
58967;BME280;44744;51.894;5.080;2023-07-29T00:52:54;100810.59;;;18.28;83.98
58967;BME280;44744;51.894;5.080;2023-07-29T00:53:55;100808.98;;;18.27;83.96
58967;BME280;44744;51.894;5.080;2023-07-29T00:54:55;100807.19;;;18.27;84.04
58967;BME280;44744;51.894;5.080;2023-07-29T00:55:55;100807.13;;;18.26;83.98
58967;BME280;44744;51.894;5.080;2023-07-29T00:56:56;100803.75;;;18.26;83.97
58967;BME280;44744;51.894;5.080;2023-07-29T00:57:59;100801.17;;;18.24;84.01
58967;BME280;44744;51.894;5.080;2023-07-29T00:59:19;100800.80;;;18.22;84.09
58967;BME280;44744;51.894;5.080;2023-07-29T01:00:20;100805.05;;;18.21;84.20
58967;BME280;44744;51.894;5.080;2023-07-29T01:01:21;100804.01;;;18.21;84.26
58967;BME280;44744;51.894;5.080;2023-07-29T01:02:22;100802.70;;;18.19;84.07
58967;BME280;44744;51.894;5.080;2023-07-29T01:03:23;100803.86;;;18.18;84.10
58967;BME280;44744;51.894;5.080;2023-07-29T01:04:25;100796.96;;;18.18;84.43
58967;BME280;44744;51.894;5.080;2023-07-29T01:05:28;100798.95;;;18.17;84.49
58967;BME280;44744;51.894;5.080;2023-07-29T01:06:41;100798.77;;;18.15;84.28
58967;BME280;44744;51.894;5.080;2023-07-29T01:07:59;100799.60;;;18.14;84.43
58967;BME280;44744;51.894;5.080;2023-07-29T01:09:03;100802.99;;;18.12;84.48
58967;BME280;44744;51.894;5.080;2023-07-29T01:10:10;100800.72;;;18.12;84.56
58967;BME280;44744;51.894;5.080;2023-07-29T01:13:44;100802.48;;;18.07;84.69
58967;BME280;44744;51.894;5.080;2023-07-29T01:14:55;100801.55;;;18.06;84.74
58967;BME280;44744;51.894;5.080;2023-07-29T01:16:44;100798.33;;;18.04;84.72
58967;BME280;44744;51.894;5.080;2023-07-29T01:17:25;100796.54;;;18.02;84.73
58967;BME280;44744;51.894;5.080;2023-07-29T01:18:30;100797.91;;;18.02;84.86
58967;BME280;44744;51.894;5.080;2023-07-29T01:21:07;100791.54;;;17.99;85.00
58967;BME280;44744;51.894;5.080;2023-07-29T01:22:10;100793.38;;;17.99;84.78
58967;BME280;44744;51.894;5.080;2023-07-29T01:23:13;100791.73;;;17.97;84.99
58967;BME280;44744;51.894;5.080;2023-07-29T01:24:15;100790.63;;;17.96;84.95
58967;BME280;44744;51.894;5.080;2023-07-29T01:25:17;100787.36;;;17.94;85.02
58967;BME280;44744;51.894;5.080;2023-07-29T01:26:17;100795.46;;;17.94;85.17
58967;BME280;44744;51.894;5.080;2023-07-29T01:27:20;100790.51;;;17.93;85.06
58967;BME280;44744;51.894;5.080;2023-07-29T01:28:20;100792.87;;;17.93;85.12
58967;BME280;44744;51.894;5.080;2023-07-29T01:29:21;100794.26;;;17.93;85.20
58967;BME280;44744;51.894;5.080;2023-07-29T01:30:22;100791.91;;;17.93;85.12
58967;BME280;44744;51.894;5.080;2023-07-29T01:31:25;100793.95;;;17.93;85.18
58967;BME280;44744;51.894;5.080;2023-07-29T01:32:29;100795.19;;;17.93;85.24
58967;BME280;44744;51.894;5.080;2023-07-29T01:33:42;100793.70;;;17.91;85.21
58967;BME280;44744;51.894;5.080;2023-07-29T01:34:52;100788.66;;;17.89;85.32
58967;BME280;44744;51.894;5.080;2023-07-29T01:35:57;100786.54;;;17.87;85.45
58967;BME280;44744;51.894;5.080;2023-07-29T01:36:58;100784.08;;;17.86;85.51
58967;BME280;44744;51.894;5.080;2023-07-29T01:38:22;100785.45;;;17.85;85.37
58967;BME280;44744;51.894;5.080;2023-07-29T01:39:20;100783.83;;;17.85;85.47
58967;BME280;44744;51.894;5.080;2023-07-29T01:40:22;100782.93;;;17.85;85.34
58967;BME280;44744;51.894;5.080;2023-07-29T01:41:22;100783.00;;;17.84;85.59
58967;BME280;44744;51.894;5.080;2023-07-29T01:42:24;100786.30;;;17.85;85.49
58967;BME280;44744;51.894;5.080;2023-07-29T01:43:24;100786.86;;;17.85;85.56
58967;BME280;44744;51.894;5.080;2023-07-29T01:44:25;100786.86;;;17.85;85.44
58967;BME280;44744;51.894;5.080;2023-07-29T01:45:26;100786.26;;;17.84;85.58
58967;BME280;44744;51.894;5.080;2023-07-29T01:46:28;100785.27;;;17.83;85.49
58967;BME280;44744;51.894;5.080;2023-07-29T01:47:28;100782.64;;;17.82;85.48
58967;BME280;44744;51.894;5.080;2023-07-29T01:48:28;100785.89;;;17.82;85.60
58967;BME280;44744;51.894;5.080;2023-07-29T01:49:32;100787.35;;;17.81;85.54
58967;BME280;44744;51.894;5.080;2023-07-29T01:50:36;100787.39;;;17.81;85.54
58967;BME280;44744;51.894;5.080;2023-07-29T01:51:38;100783.60;;;17.81;85.60
58967;BME280;44744;51.894;5.080;2023-07-29T01:52:38;100781.06;;;17.82;85.52
58967;BME280;44744;51.894;5.080;2023-07-29T01:53:38;100780.48;;;17.83;85.53
58967;BME280;44744;51.894;5.080;2023-07-29T01:54:40;100776.29;;;17.83;85.60
58967;BME280;44744;51.894;5.080;2023-07-29T01:55:40;100775.06;;;17.83;85.49
58967;BME280;44744;51.894;5.080;2023-07-29T01:56:42;100778.48;;;17.83;85.46
58967;BME280;44744;51.894;5.080;2023-07-29T01:57:42;100778.35;;;17.82;85.29
58967;BME280;44744;51.894;5.080;2023-07-29T01:58:43;100777.65;;;17.82;85.26
58967;BME280;44744;51.894;5.080;2023-07-29T01:59:45;100777.16;;;17.82;85.54
58967;BME280;44744;51.894;5.080;2023-07-29T02:00:48;100776.45;;;17.81;85.29
58967;BME280;44744;51.894;5.080;2023-07-29T02:01:48;100776.39;;;17.80;85.23
58967;BME280;44744;51.894;5.080;2023-07-29T02:02:49;100775.74;;;17.79;85.19
58967;BME280;44744;51.894;5.080;2023-07-29T02:03:49;100777.60;;;17.79;85.22
58967;BME280;44744;51.894;5.080;2023-07-29T02:04:49;100776.04;;;17.78;85.30
58967;BME280;44744;51.894;5.080;2023-07-29T02:05:52;100775.39;;;17.77;85.27
58967;BME280;44744;51.894;5.080;2023-07-29T02:06:52;100773.96;;;17.77;85.06
58967;BME280;44744;51.894;5.080;2023-07-29T02:07:54;100772.20;;;17.77;85.30
58967;BME280;44744;51.894;5.080;2023-07-29T02:08:55;100774.79;;;17.75;85.23
58967;BME280;44744;51.894;5.080;2023-07-29T02:09:55;100771.43;;;17.75;85.11
58967;BME280;44744;51.894;5.080;2023-07-29T02:10:55;100772.88;;;17.75;85.16
58967;BME280;44744;51.894;5.080;2023-07-29T02:11:56;100777.39;;;17.74;85.05
58967;BME280;44744;51.894;5.080;2023-07-29T02:12:56;100777.07;;;17.74;85.00
58967;BME280;44744;51.894;5.080;2023-07-29T02:13:56;100777.65;;;17.73;85.08
58967;BME280;44744;51.894;5.080;2023-07-29T02:14:56;100774.93;;;17.72;85.10
58967;BME280;44744;51.894;5.080;2023-07-29T02:15:56;100772.84;;;17.71;85.03
58967;BME280;44744;51.894;5.080;2023-07-29T02:16:57;100773.54;;;17.71;85.11
58967;BME280;44744;51.894;5.080;2023-07-29T02:17:57;100770.64;;;17.70;84.96
58967;BME280;44744;51.894;5.080;2023-07-29T02:18:58;100769.27;;;17.69;84.87
58967;BME280;44744;51.894;5.080;2023-07-29T02:19:59;100765.42;;;17.68;84.91
58967;BME280;44744;51.894;5.080;2023-07-29T02:20:59;100763.50;;;17.68;84.97
58967;BME280;44744;51.894;5.080;2023-07-29T02:21:59;100760.57;;;17.66;84.93
58967;BME280;44744;51.894;5.080;2023-07-29T02:22:59;100758.10;;;17.66;84.84
58967;BME280;44744;51.894;5.080;2023-07-29T02:23:59;100759.88;;;17.64;84.85
58967;BME280;44744;51.894;5.080;2023-07-29T02:25:01;100761.02;;;17.63;84.80
58967;BME280;44744;51.894;5.080;2023-07-29T02:26:02;100758.20;;;17.63;84.84
58967;BME280;44744;51.894;5.080;2023-07-29T02:27:02;100757.23;;;17.62;84.77
58967;BME280;44744;51.894;5.080;2023-07-29T02:28:02;100756.92;;;17.61;84.85
58967;BME280;44744;51.894;5.080;2023-07-29T02:29:07;100756.08;;;17.61;84.85
58967;BME280;44744;51.894;5.080;2023-07-29T02:30:07;100759.13;;;17.61;84.85
58967;BME280;44744;51.894;5.080;2023-07-29T02:31:22;100755.12;;;17.59;84.67
58967;BME280;44744;51.894;5.080;2023-07-29T02:32:25;100758.23;;;17.58;84.71
58967;BME280;44744;51.894;5.080;2023-07-29T02:33:25;100758.29;;;17.57;84.71
58967;BME280;44744;51.894;5.080;2023-07-29T02:34:27;100759.52;;;17.58;84.63
58967;BME280;44744;51.894;5.080;2023-07-29T02:35:27;100756.66;;;17.57;84.56
58967;BME280;44744;51.894;5.080;2023-07-29T02:36:28;100753.00;;;17.56;84.61
58967;BME280;44744;51.894;5.080;2023-07-29T02:37:30;100751.57;;;17.54;84.43
58967;BME280;44744;51.894;5.080;2023-07-29T02:38:30;100755.27;;;17.53;84.43
58967;BME280;44744;51.894;5.080;2023-07-29T02:39:32;100752.34;;;17.52;84.47
58967;BME280;44744;51.894;5.080;2023-07-29T02:40:32;100755.91;;;17.50;84.54
58967;BME280;44744;51.894;5.080;2023-07-29T02:41:32;100755.63;;;17.49;84.24
58967;BME280;44744;51.894;5.080;2023-07-29T02:42:32;100754.46;;;17.48;84.52
58967;BME280;44744;51.894;5.080;2023-07-29T02:43:32;100756.17;;;17.47;84.38
58967;BME280;44744;51.894;5.080;2023-07-29T02:44:32;100756.98;;;17.46;84.38
58967;BME280;44744;51.894;5.080;2023-07-29T02:45:33;100754.02;;;17.45;84.33
58967;BME280;44744;51.894;5.080;2023-07-29T02:46:33;100753.15;;;17.45;84.22
58967;BME280;44744;51.894;5.080;2023-07-29T02:47:33;100748.23;;;17.43;84.16
58967;BME280;44744;51.894;5.080;2023-07-29T02:48:33;100744.73;;;17.43;84.10
58967;BME280;44744;51.894;5.080;2023-07-29T02:49:33;100740.10;;;17.43;84.17
58967;BME280;44744;51.894;5.080;2023-07-29T02:50:34;100740.05;;;17.40;84.04
58967;BME280;44744;51.894;5.080;2023-07-29T02:51:35;100737.63;;;17.40;84.08
58967;BME280;44744;51.894;5.080;2023-07-29T02:52:35;100738.90;;;17.40;84.12
58967;BME280;44744;51.894;5.080;2023-07-29T02:53:35;100736.02;;;17.40;83.93
58967;BME280;44744;51.894;5.080;2023-07-29T02:54:37;100733.55;;;17.39;83.97
58967;BME280;44744;51.894;5.080;2023-07-29T02:55:40;100731.98;;;17.39;83.75
58967;BME280;44744;51.894;5.080;2023-07-29T02:56:41;100730.90;;;17.39;83.96
58967;BME280;44744;51.894;5.080;2023-07-29T02:57:42;100733.04;;;17.39;83.88
58967;BME280;44744;51.894;5.080;2023-07-29T02:58:43;100731.52;;;17.38;83.90
58967;BME280;44744;51.894;5.080;2023-07-29T02:59:45;100733.41;;;17.37;83.71
58967;BME280;44744;51.894;5.080;2023-07-29T03:00:45;100733.94;;;17.37;83.79
58967;BME280;44744;51.894;5.080;2023-07-29T03:01:45;100735.97;;;17.36;83.71
58967;BME280;44744;51.894;5.080;2023-07-29T03:02:45;100735.45;;;17.36;83.82
58967;BME280;44744;51.894;5.080;2023-07-29T03:03:46;100734.91;;;17.36;83.78
58967;BME280;44744;51.894;5.080;2023-07-29T03:04:49;100733.63;;;17.36;83.63
58967;BME280;44744;51.894;5.080;2023-07-29T03:05:50;100735.43;;;17.36;83.68
58967;BME280;44744;51.894;5.080;2023-07-29T03:06:56;100737.37;;;17.36;83.55
58967;BME280;44744;51.894;5.080;2023-07-29T03:07:57;100740.09;;;17.36;83.69
58967;BME280;44744;51.894;5.080;2023-07-29T03:08:57;100741.23;;;17.35;83.66
58967;BME280;44744;51.894;5.080;2023-07-29T03:09:57;100743.06;;;17.34;83.53
58967;BME280;44744;51.894;5.080;2023-07-29T03:10:58;100742.10;;;17.33;83.47
58967;BME280;44744;51.894;5.080;2023-07-29T03:11:59;100743.37;;;17.33;83.55
58967;BME280;44744;51.894;5.080;2023-07-29T03:12:59;100744.49;;;17.33;83.42
58967;BME280;44744;51.894;5.080;2023-07-29T03:13:59;100747.39;;;17.32;83.28
58967;BME280;44744;51.894;5.080;2023-07-29T03:15:01;100741.06;;;17.31;83.29
58967;BME280;44744;51.894;5.080;2023-07-29T03:16:05;100744.36;;;17.30;83.31
58967;BME280;44744;51.894;5.080;2023-07-29T03:17:06;100745.17;;;17.29;83.31
58967;BME280;44744;51.894;5.080;2023-07-29T03:18:06;100740.67;;;17.27;83.20
58967;BME280;44744;51.894;5.080;2023-07-29T03:19:06;100744.48;;;17.27;83.17
58967;BME280;44744;51.894;5.080;2023-07-29T03:20:07;100746.33;;;17.26;83.31
58967;BME280;44744;51.894;5.080;2023-07-29T03:21:07;100744.38;;;17.26;83.30
58967;BME280;44744;51.894;5.080;2023-07-29T03:22:08;100745.73;;;17.24;83.32
58967;BME280;44744;51.894;5.080;2023-07-29T03:23:11;100745.54;;;17.25;83.31
58967;BME280;44744;51.894;5.080;2023-07-29T03:24:11;100744.48;;;17.24;83.27
58967;BME280;44744;51.894;5.080;2023-07-29T03:25:14;100747.76;;;17.23;83.24
58967;BME280;44744;51.894;5.080;2023-07-29T03:26:19;100746.52;;;17.23;83.22
58967;BME280;44744;51.894;5.080;2023-07-29T03:27:19;100746.69;;;17.23;83.17
58967;BME280;44744;51.894;5.080;2023-07-29T03:28:19;100747.11;;;17.23;83.08
58967;BME280;44744;51.894;5.080;2023-07-29T03:29:20;100750.19;;;17.22;83.08
58967;BME280;44744;51.894;5.080;2023-07-29T03:30:21;100755.66;;;17.21;83.08
58967;BME280;44744;51.894;5.080;2023-07-29T03:31:21;100757.48;;;17.20;83.36
58967;BME280;44744;51.894;5.080;2023-07-29T03:32:23;100760.20;;;17.20;83.25
58967;BME280;44744;51.894;5.080;2023-07-29T03:33:24;100763.45;;;17.20;83.23
58967;BME280;44744;51.894;5.080;2023-07-29T03:34:25;100766.01;;;17.19;83.19
58967;BME280;44744;51.894;5.080;2023-07-29T03:35:25;100764.33;;;17.18;83.25
58967;BME280;44744;51.894;5.080;2023-07-29T03:36:25;100760.94;;;17.16;83.22
58967;BME280;44744;51.894;5.080;2023-07-29T03:37:29;100756.76;;;17.15;83.22
58967;BME280;44744;51.894;5.080;2023-07-29T03:38:39;100750.42;;;17.13;83.27
58967;BME280;44744;51.894;5.080;2023-07-29T03:39:39;100743.19;;;17.12;83.34
58967;BME280;44744;51.894;5.080;2023-07-29T03:40:40;100746.59;;;17.12;83.39
58967;BME280;44744;51.894;5.080;2023-07-29T03:41:41;100746.23;;;17.12;83.23
58967;BME280;44744;51.894;5.080;2023-07-29T03:42:41;100745.64;;;17.11;83.35
58967;BME280;44744;51.894;5.080;2023-07-29T03:43:44;100750.33;;;17.10;83.25
58967;BME280;44744;51.894;5.080;2023-07-29T03:44:44;100753.34;;;17.08;83.36
58967;BME280;44744;51.894;5.080;2023-07-29T03:45:45;100754.79;;;17.08;83.30
58967;BME280;44744;51.894;5.080;2023-07-29T03:46:45;100755.52;;;17.05;83.28
58967;BME280;44744;51.894;5.080;2023-07-29T03:47:45;100755.14;;;17.04;83.27
58967;BME280;44744;51.894;5.080;2023-07-29T03:48:45;100755.69;;;17.03;83.38
58967;BME280;44744;51.894;5.080;2023-07-29T03:49:45;100759.64;;;17.03;83.20
58967;BME280;44744;51.894;5.080;2023-07-29T03:50:45;100752.79;;;17.02;83.22
58967;BME280;44744;51.894;5.080;2023-07-29T03:51:46;100754.39;;;17.02;83.43
58967;BME280;44744;51.894;5.080;2023-07-29T03:52:46;100753.73;;;17.01;83.43
58967;BME280;44744;51.894;5.080;2023-07-29T03:53:47;100756.64;;;17.01;83.43
58967;BME280;44744;51.894;5.080;2023-07-29T03:54:47;100758.27;;;17.00;83.30
58967;BME280;44744;51.894;5.080;2023-07-29T03:55:47;100758.75;;;16.99;83.33
58967;BME280;44744;51.894;5.080;2023-07-29T03:56:47;100756.84;;;16.98;83.38
58967;BME280;44744;51.894;5.080;2023-07-29T03:57:48;100754.89;;;16.98;83.39
58967;BME280;44744;51.894;5.080;2023-07-29T03:58:48;100752.03;;;16.96;83.38
58967;BME280;44744;51.894;5.080;2023-07-29T03:59:50;100748.51;;;16.96;83.38
58967;BME280;44744;51.894;5.080;2023-07-29T04:00:50;100744.09;;;16.95;83.25
58967;BME280;44744;51.894;5.080;2023-07-29T04:01:51;100738.42;;;16.94;83.35
58967;BME280;44744;51.894;5.080;2023-07-29T04:02:52;100735.11;;;16.93;83.21
58967;BME280;44744;51.894;5.080;2023-07-29T04:03:52;100735.98;;;16.94;83.43
58967;BME280;44744;51.894;5.080;2023-07-29T04:04:53;100736.94;;;16.93;83.44
58967;BME280;44744;51.894;5.080;2023-07-29T04:05:53;100734.94;;;16.93;83.59
58967;BME280;44744;51.894;5.080;2023-07-29T04:06:53;100738.80;;;16.94;83.48
58967;BME280;44744;51.894;5.080;2023-07-29T04:07:53;100739.54;;;16.94;83.46
58967;BME280;44744;51.894;5.080;2023-07-29T04:08:55;100736.14;;;16.94;83.48
58967;BME280;44744;51.894;5.080;2023-07-29T04:09:58;100736.58;;;16.93;83.31
58967;BME280;44744;51.894;5.080;2023-07-29T04:11:00;100735.36;;;16.92;83.45
58967;BME280;44744;51.894;5.080;2023-07-29T04:12:00;100735.36;;;16.92;83.56
58967;BME280;44744;51.894;5.080;2023-07-29T04:13:00;100736.52;;;16.92;83.41
58967;BME280;44744;51.894;5.080;2023-07-29T04:14:00;100737.22;;;16.92;83.47
58967;BME280;44744;51.894;5.080;2023-07-29T04:15:01;100739.61;;;16.91;83.31
58967;BME280;44744;51.894;5.080;2023-07-29T04:16:01;100743.67;;;16.89;83.35
58967;BME280;44744;51.894;5.080;2023-07-29T04:17:01;100744.05;;;16.89;83.39
58967;BME280;44744;51.894;5.080;2023-07-29T04:18:02;100741.02;;;16.88;83.42
58967;BME280;44744;51.894;5.080;2023-07-29T04:19:03;100740.09;;;16.87;83.51
58967;BME280;44744;51.894;5.080;2023-07-29T04:20:03;100735.25;;;16.87;83.56
58967;BME280;44744;51.894;5.080;2023-07-29T04:21:04;100737.20;;;16.87;83.49
58967;BME280;44744;51.894;5.080;2023-07-29T04:22:05;100743.32;;;16.86;83.42
58967;BME280;44744;51.894;5.080;2023-07-29T04:23:07;100743.10;;;16.85;83.29
58967;BME280;44744;51.894;5.080;2023-07-29T04:24:11;100750.48;;;16.84;83.48
58967;BME280;44744;51.894;5.080;2023-07-29T04:25:12;100751.61;;;16.83;83.42
58967;BME280;44744;51.894;5.080;2023-07-29T04:26:12;100758.50;;;16.82;83.35
58967;BME280;44744;51.894;5.080;2023-07-29T04:27:15;100758.36;;;16.82;83.65
58967;BME280;44744;51.894;5.080;2023-07-29T04:28:24;100762.34;;;16.81;83.51
58967;BME280;44744;51.894;5.080;2023-07-29T04:29:24;100753.95;;;16.81;83.58
58967;BME280;44744;51.894;5.080;2023-07-29T04:30:25;100753.86;;;16.80;83.66
58967;BME280;44744;51.894;5.080;2023-07-29T04:31:25;100752.69;;;16.79;83.49
58967;BME280;44744;51.894;5.080;2023-07-29T04:32:25;100755.07;;;16.78;83.47
58967;BME280;44744;51.894;5.080;2023-07-29T04:33:31;100761.98;;;16.77;83.54
58967;BME280;44744;51.894;5.080;2023-07-29T04:34:31;100761.34;;;16.76;83.57
58967;BME280;44744;51.894;5.080;2023-07-29T04:35:33;100762.52;;;16.75;83.63
58967;BME280;44744;51.894;5.080;2023-07-29T04:36:36;100764.88;;;16.74;83.73
58967;BME280;44744;51.894;5.080;2023-07-29T04:37:36;100766.75;;;16.73;83.71
58967;BME280;44744;51.894;5.080;2023-07-29T04:38:37;100764.89;;;16.71;83.86
58967;BME280;44744;51.894;5.080;2023-07-29T04:39:39;100768.69;;;16.71;83.66
58967;BME280;44744;51.894;5.080;2023-07-29T04:40:39;100767.34;;;16.70;83.80
58967;BME280;44744;51.894;5.080;2023-07-29T04:41:40;100771.52;;;16.69;83.82
58967;BME280;44744;51.894;5.080;2023-07-29T04:42:40;100775.48;;;16.69;83.90
58967;BME280;44744;51.894;5.080;2023-07-29T04:43:40;100776.88;;;16.69;83.84
58967;BME280;44744;51.894;5.080;2023-07-29T04:44:41;100772.26;;;16.69;83.87
58967;BME280;44744;51.894;5.080;2023-07-29T04:45:47;100773.83;;;16.69;83.93
58967;BME280;44744;51.894;5.080;2023-07-29T04:46:49;100768.61;;;16.70;83.98
58967;BME280;44744;51.894;5.080;2023-07-29T04:47:49;100768.81;;;16.69;83.98
58967;BME280;44744;51.894;5.080;2023-07-29T04:48:49;100770.98;;;16.69;83.92
58967;BME280;44744;51.894;5.080;2023-07-29T04:49:50;100776.78;;;16.68;83.92
58967;BME280;44744;51.894;5.080;2023-07-29T04:50:50;100781.60;;;16.68;83.92
58967;BME280;44744;51.894;5.080;2023-07-29T04:51:50;100786.09;;;16.68;83.93
58967;BME280;44744;51.894;5.080;2023-07-29T04:52:50;100787.20;;;16.67;83.93
58967;BME280;44744;51.894;5.080;2023-07-29T04:53:51;100788.70;;;16.66;84.01
58967;BME280;44744;51.894;5.080;2023-07-29T04:54:51;100787.11;;;16.66;83.99
58967;BME280;44744;51.894;5.080;2023-07-29T04:55:53;100783.92;;;16.66;84.22
58967;BME280;44744;51.894;5.080;2023-07-29T04:56:53;100781.09;;;16.65;84.15
58967;BME280;44744;51.894;5.080;2023-07-29T04:57:53;100781.06;;;16.66;84.36
58967;BME280;44744;51.894;5.080;2023-07-29T04:58:53;100782.27;;;16.67;84.36
58967;BME280;44744;51.894;5.080;2023-07-29T04:59:53;100780.91;;;16.65;84.54
58967;BME280;44744;51.894;5.080;2023-07-29T05:00:56;100776.06;;;16.66;84.63
58967;BME280;44744;51.894;5.080;2023-07-29T05:01:59;100776.73;;;16.66;84.49
58967;BME280;44744;51.894;5.080;2023-07-29T05:02:59;100772.61;;;16.67;84.58
58967;BME280;44744;51.894;5.080;2023-07-29T05:03:59;100773.87;;;16.67;84.41
58967;BME280;44744;51.894;5.080;2023-07-29T05:05:01;100780.09;;;16.67;84.57
58967;BME280;44744;51.894;5.080;2023-07-29T05:06:03;100778.36;;;16.68;84.77
58967;BME280;44744;51.894;5.080;2023-07-29T05:07:05;100772.39;;;16.69;84.69
58967;BME280;44744;51.894;5.080;2023-07-29T05:08:06;100767.74;;;16.69;84.76
58967;BME280;44744;51.894;5.080;2023-07-29T05:09:18;100765.16;;;16.70;84.69
58967;BME280;44744;51.894;5.080;2023-07-29T05:10:20;100768.86;;;16.71;84.80
58967;BME280;44744;51.894;5.080;2023-07-29T05:11:26;100767.64;;;16.71;84.73
58967;BME280;44744;51.894;5.080;2023-07-29T05:12:32;100768.91;;;16.70;85.00
58967;BME280;44744;51.894;5.080;2023-07-29T05:13:34;100767.72;;;16.70;85.07
58967;BME280;44744;51.894;5.080;2023-07-29T05:14:34;100765.77;;;16.69;84.94
58967;BME280;44744;51.894;5.080;2023-07-29T05:15:34;100770.78;;;16.69;85.07
58967;BME280;44744;51.894;5.080;2023-07-29T05:16:34;100769.13;;;16.70;85.22
58967;BME280;44744;51.894;5.080;2023-07-29T05:17:38;100774.50;;;16.70;85.13
58967;BME280;44744;51.894;5.080;2023-07-29T05:18:40;100782.94;;;16.71;85.12
58967;BME280;44744;51.894;5.080;2023-07-29T05:19:41;100784.05;;;16.71;85.32
58967;BME280;44744;51.894;5.080;2023-07-29T05:20:42;100787.45;;;16.71;85.29
58967;BME280;44744;51.894;5.080;2023-07-29T05:21:43;100785.45;;;16.71;85.31
58967;BME280;44744;51.894;5.080;2023-07-29T05:22:44;100783.64;;;16.71;85.25
58967;BME280;44744;51.894;5.080;2023-07-29T05:23:44;100784.29;;;16.72;85.24
58967;BME280;44744;51.894;5.080;2023-07-29T05:24:45;100788.90;;;16.73;85.35
58967;BME280;44744;51.894;5.080;2023-07-29T05:25:45;100786.48;;;16.74;85.41
58967;BME280;44744;51.894;5.080;2023-07-29T05:26:45;100784.09;;;16.75;85.65